• Join FlightAware (Why Join?)
  • Login
  • US Flag 
10:49AM EST


 

Airport Tracker/Info


-or-


 

Live Flight TrackerFlight Track Log ✈ N449ND ✈ 24-Feb-2014 ✈ KFPR - KVRB

Flight Track Log - Related Links

Times and Time Zones

All times are in EST time to prevent confusion due to time zone crossing. See the N449ND flight status page for this flight to view local times or setup timezone preferences in your user account.

Time Position Orientation Groundspeed Altitude Reporting Facility
EST Latitude Longitude Course Direction KTS MPH feet Rate Location/Type
11:14AM 27.4972 -80.4039 274° West 96 110 900  Level Miami Center
11:15AM 27.4986 -80.4272 274° West 85 98 1,500 600 Climbing Miami Center
11:16AM 27.4958 -80.4553 264° West 85 98 2,200 600 Climbing Miami Center
11:17AM 27.4972 -80.4811 273° West 85 98 2,800 360 Climbing Miami Center
11:18AM 27.4989 -80.5044 275° West 85 98 3,000 120 Climbing Miami Center
11:19AM 27.4836 -80.5250 230° Southwest 85 98 3,100  Climbing Miami Center
11:20AM 27.4633 -80.5011 134° Southeast 79 91 3,000 -120 Descending Miami Center
11:21AM 27.4497 -80.4656 113° Southeast 112 129 2,900  Descending Miami Center
11:22AM 27.4381 -80.4325 112° Southeast 118 136 3,000 300 Climbing Miami Center
11:23AM 27.4281 -80.4086 115° Southeast 107 123 3,500 420 Climbing Miami Center
11:24AM 27.4350 -80.3808 74° East 94 108 3,900 240 Climbing Miami Center
11:25AM 27.4547 -80.3486 55° Northeast 99 114 4,000  Climbing Miami Center
11:26AM 27.4719 -80.3211 55° Northeast 105 121 4,000  Level Miami Center
11:27AM 27.4936 -80.2936 48° Northeast 111 128 4,000 -120 Level Miami Center
11:28AM 27.5128 -80.2708 47° Northeast 106 122 3,800 -480 Descending Miami Center
11:29AM 27.5383 -80.2458 41° Northeast 106 122 3,100 -480 Descending Miami Center
11:30AM 27.5658 -80.2350 19° North 101 116 2,900 -540 Descending Miami Center
11:31AM 27.5842 -80.2542 317° Northwest 83 96 2,100 -600 Descending Miami Center
11:32AM 27.5983 -80.2781 304° West 98 113 1,800 -180 Descending Miami Center
11:33AM 27.6144 -80.3019 307° West 106 122 1,800 -120 Level Miami Center
11:34AM 27.6261 -80.3350 292° West 101 116 1,600 -360 Descending Miami Center
11:35AM 27.6358 -80.3658 290° West 101 116 1,100 -600 Descending Miami Center
11:36AM 27.6436 -80.3919 289° West 96 110 400 -300 Descending Miami Center
11:37AM 27.6514 -80.4156 290° West 91 105 500 420 Climbing Miami Center
11:38AM 27.6503 -80.4531 268° West 85 98 1,500 660 Climbing Miami Center
11:39AM 27.6475 -80.4789 263° West 85 98 2,100 720 Climbing Miami Center
11:40AM 27.6428 -80.5019 257° West 85 98 3,000 420 Climbing Miami Center
11:41AM 27.6358 -80.5300 254° West 86 99 3,000  Level Miami Center
11:42AM 27.6147 -80.5433 209° Southwest 86 99 3,000  Level Miami Center
11:43AM 27.5989 -80.5122 120° Southeast 72 83 3,000  Level Miami Center
11:44AM 27.5892 -80.4792 108° East 97 112 3,000  Level Miami Center
11:45AM 27.5794 -80.4461 108° East 108 124 3,000  Level Miami Center
11:46AM 27.5681 -80.4061 108° East 116 133 3,000  Level Miami Center
11:47AM 27.5564 -80.3728 112° Southeast 116 133 3,000  Level Miami Center
11:48AM 27.5467 -80.3375 107° East 111 128 3,000  Level Miami Center
11:49AM 27.5369 -80.3089 111° Southeast 111 128 3,000  Level Miami Center
11:50AM 27.5253 -80.2689 108° East 111 128 3,000 -300 Level Miami Center
11:51AM 27.5261 -80.2383 88° East 103 119 2,500 -540 Descending Miami Center
11:52AM 27.5536 -80.2253 23° Northeast 80 92 2,000 -300 Descending Miami Center
11:53AM 27.5786 -80.2236 North 94 108 2,000 -120 Level Miami Center
11:54AM 27.5928 -80.2475 304° West 89 102 1,800 -120 Descending Miami Center
11:55AM 27.6044 -80.2806 292° West 97 112 1,800  Level Miami Center
11:56AM 27.6183 -80.3114 297° West 109 125 1,800 -120 Level Miami Center
11:57AM 27.6281 -80.3375 293° West 109 125 1,600 -300 Descending Miami Center
11:58AM 27.6339 -80.3611 286° West 95 109 1,200 -480 Descending Miami Center
11:59AM 27.6436 -80.3894 291° West 95 109 700  Descending Miami Center
12:01PM 27.6592 -80.4392 285° West 89 102 1,200 360 Climbing Miami Center
12:02PM 27.6628 -80.4628 280° West 89 102 1,800 600 Climbing Miami Center
12:04PM 27.6564 -80.4397 107° East  Level FlightAware Approximate
12:11PM 27.6500 -80.4167 90° East  Level FlightAware Approximate
12:12PM 27.6556 -80.4179 90° East  Level Estimated
12:13PM 27.6500 -80.4167 90° East  Level FlightAware Approximate
12:14PM 27.6556 -80.4179 90° East  Level Estimated
12:15PM 27.6500 -80.4167 90° East  Level FlightAware Approximate
12:16PM 27.6556 -80.4179 90° East  Level Estimated
12:17PM 27.6500 -80.4167 90° East  Level FlightAware Approximate
12:18PM 27.6556 -80.4179 90° East  Level Estimated
12:19PM 27.6500 -80.4167 90° East  Level FlightAware Approximate
12:20PM 27.6556 -80.4179 90° East  Level Estimated